sensor_id;sensor_type;location;lat;lon;timestamp;pressure;altitude;pressure_sealevel;temperature;humidity
59043;BME280;44826;51.596;5.624;2022-10-31T00:01:16;101973.47;;;13.14;86.12
59043;BME280;44826;51.596;5.624;2022-10-31T00:03:42;101966.59;;;13.08;85.91
59043;BME280;44826;51.596;5.624;2022-10-31T00:06:07;101965.75;;;13.06;85.88
59043;BME280;44826;51.596;5.624;2022-10-31T00:08:32;101964.13;;;13.00;85.90
59043;BME280;44826;51.596;5.624;2022-10-31T00:10:57;101979.06;;;12.92;85.36
59043;BME280;44826;51.596;5.624;2022-10-31T00:13:23;101978.31;;;12.85;85.05
59043;BME280;44826;51.596;5.624;2022-10-31T00:15:48;101977.50;;;12.82;85.60
59043;BME280;44826;51.596;5.624;2022-10-31T00:18:13;101985.38;;;12.80;85.61
59043;BME280;44826;51.596;5.624;2022-10-31T00:20:39;101983.66;;;12.78;85.69
59043;BME280;44826;51.596;5.624;2022-10-31T00:23:06;101980.25;;;12.74;85.51
59043;BME280;44826;51.596;5.624;2022-10-31T00:25:39;101983.84;;;12.67;85.93
59043;BME280;44826;51.596;5.624;2022-10-31T00:28:05;101973.47;;;12.64;86.33
59043;BME280;44826;51.596;5.624;2022-10-31T00:30:32;101974.41;;;12.59;85.52
59043;BME280;44826;51.596;5.624;2022-10-31T00:32:57;101974.47;;;12.55;85.50
59043;BME280;44826;51.596;5.624;2022-10-31T00:35:22;101978.00;;;12.51;85.82
59043;BME280;44826;51.596;5.624;2022-10-31T00:37:47;101974.56;;;12.49;85.47
59043;BME280;44826;51.596;5.624;2022-10-31T00:40:13;101972.88;;;12.46;85.74
59043;BME280;44826;51.596;5.624;2022-10-31T00:42:39;101975.56;;;12.40;85.97
59043;BME280;44826;51.596;5.624;2022-10-31T00:45:09;101968.66;;;12.36;86.08
59043;BME280;44826;51.596;5.624;2022-10-31T00:47:35;101966.09;;;12.33;86.12
59043;BME280;44826;51.596;5.624;2022-10-31T00:50:00;101960.06;;;12.29;86.25
59043;BME280;44826;51.596;5.624;2022-10-31T00:52:25;101957.50;;;12.26;86.71
59043;BME280;44826;51.596;5.624;2022-10-31T00:54:51;101960.13;;;12.24;86.14
59043;BME280;44826;51.596;5.624;2022-10-31T00:57:16;101965.41;;;12.21;86.48
59043;BME280;44826;51.596;5.624;2022-10-31T00:59:41;101954.16;;;12.18;85.85
59043;BME280;44826;51.596;5.624;2022-10-31T01:02:06;101955.91;;;12.16;85.99
59043;BME280;44826;51.596;5.624;2022-10-31T01:04:32;101965.53;;;12.12;85.87
59043;BME280;44826;51.596;5.624;2022-10-31T01:06:58;101972.53;;;12.08;86.08
59043;BME280;44826;51.596;5.624;2022-10-31T01:09:23;101963.00;;;12.06;85.35
59043;BME280;44826;51.596;5.624;2022-10-31T01:11:48;101965.69;;;12.01;85.20
59043;BME280;44826;51.596;5.624;2022-10-31T01:14:14;101974.44;;;11.95;85.49
59043;BME280;44826;51.596;5.624;2022-10-31T01:16:39;101984.00;;;11.93;85.46
59043;BME280;44826;51.596;5.624;2022-10-31T01:19:04;101973.69;;;11.86;84.71
59043;BME280;44826;51.596;5.624;2022-10-31T01:21:29;101965.00;;;11.82;85.33
59043;BME280;44826;51.596;5.624;2022-10-31T01:23:55;101953.75;;;11.80;85.81
59043;BME280;44826;51.596;5.624;2022-10-31T01:26:23;101944.22;;;11.77;85.50
59043;BME280;44826;51.596;5.624;2022-10-31T01:28:55;101941.69;;;11.73;85.19
59043;BME280;44826;51.596;5.624;2022-10-31T01:31:23;101945.19;;;11.68;85.79
59043;BME280;44826;51.596;5.624;2022-10-31T01:33:49;101945.22;;;11.65;85.19
59043;BME280;44826;51.596;5.624;2022-10-31T01:36:21;101952.22;;;11.63;84.85
59043;BME280;44826;51.596;5.624;2022-10-31T01:38:47;101952.31;;;11.57;84.80
59043;BME280;44826;51.596;5.624;2022-10-31T01:41:17;101951.47;;;11.52;85.49
59043;BME280;44826;51.596;5.624;2022-10-31T01:43:46;101950.69;;;11.45;85.60
59043;BME280;44826;51.596;5.624;2022-10-31T01:46:13;101950.72;;;11.44;85.01
59043;BME280;44826;51.596;5.624;2022-10-31T01:48:39;101958.56;;;11.41;83.95
59043;BME280;44826;51.596;5.624;2022-10-31T01:51:05;101962.97;;;11.35;84.03
59043;BME280;44826;51.596;5.624;2022-10-31T01:53:33;101964.72;;;11.33;84.93
59043;BME280;44826;51.596;5.624;2022-10-31T01:55:59;101962.16;;;11.32;85.44
59043;BME280;44826;51.596;5.624;2022-10-31T01:58:28;101962.16;;;11.29;85.45
59043;BME280;44826;51.596;5.624;2022-10-31T02:00:58;101963.03;;;11.28;86.04
59043;BME280;44826;51.596;5.624;2022-10-31T02:03:25;101960.44;;;11.28;86.18
59043;BME280;44826;51.596;5.624;2022-10-31T02:05:53;101960.47;;;11.26;85.89
59043;BME280;44826;51.596;5.624;2022-10-31T02:08:25;101960.44;;;11.28;86.40
59043;BME280;44826;51.596;5.624;2022-10-31T02:10:51;101958.66;;;11.33;85.25
59043;BME280;44826;51.596;5.624;2022-10-31T02:13:17;101961.28;;;11.28;85.94
59043;BME280;44826;51.596;5.624;2022-10-31T02:15:44;101955.22;;;11.28;85.96
59043;BME280;44826;51.596;5.624;2022-10-31T02:18:10;101948.28;;;11.27;86.14
59043;BME280;44826;51.596;5.624;2022-10-31T02:20:46;101948.31;;;11.25;86.30
59043;BME280;44826;51.596;5.624;2022-10-31T02:31:52;101950.22;;;11.06;84.95
59043;BME280;44826;51.596;5.624;2022-10-31T02:37:11;101946.91;;;10.91;83.87
59043;BME280;44826;51.596;5.624;2022-10-31T02:39:47;101946.97;;;10.87;84.20
59043;BME280;44826;51.596;5.624;2022-10-31T02:42:35;101946.09;;;10.85;84.51
59043;BME280;44826;51.596;5.624;2022-10-31T02:45:09;101949.59;;;10.81;84.51
59043;BME280;44826;51.596;5.624;2022-10-31T02:47:37;101942.69;;;10.76;84.24
59043;BME280;44826;51.596;5.624;2022-10-31T02:50:07;101957.50;;;10.71;83.36
59043;BME280;44826;51.596;5.624;2022-10-31T02:52:34;101949.72;;;10.65;82.73
59043;BME280;44826;51.596;5.624;2022-10-31T02:55:41;101950.63;;;10.61;83.67
59043;BME280;44826;51.596;5.624;2022-10-31T02:58:05;101948.94;;;10.57;83.78
59043;BME280;44826;51.596;5.624;2022-10-31T03:00:38;101946.34;;;10.55;84.13
59043;BME280;44826;51.596;5.624;2022-10-31T03:03:36;101944.63;;;10.56;85.50
59043;BME280;44826;51.596;5.624;2022-10-31T03:06:03;101938.50;;;10.60;85.93
59043;BME280;44826;51.596;5.624;2022-10-31T03:08:54;101948.03;;;10.62;85.86
59043;BME280;44826;51.596;5.624;2022-10-31T03:11:25;101954.06;;;10.66;86.38
59043;BME280;44826;51.596;5.624;2022-10-31T03:14:00;101956.66;;;10.66;86.38
59043;BME280;44826;51.596;5.624;2022-10-31T03:19:14;101954.94;;;10.68;87.00
59043;BME280;44826;51.596;5.624;2022-10-31T03:21:46;101949.72;;;10.68;87.01
59043;BME280;44826;51.596;5.624;2022-10-31T03:24:13;101950.56;;;10.70;86.63
59043;BME280;44826;51.596;5.624;2022-10-31T03:26:46;101949.72;;;10.68;86.63
59043;BME280;44826;51.596;5.624;2022-10-31T03:29:15;101952.34;;;10.67;87.01
59043;BME280;44826;51.596;5.624;2022-10-31T03:31:55;101942.78;;;10.67;87.24
59043;BME280;44826;51.596;5.624;2022-10-31T03:34:22;101941.03;;;10.69;87.49
59043;BME280;44826;51.596;5.624;2022-10-31T03:36:50;101939.31;;;10.68;87.69
59043;BME280;44826;51.596;5.624;2022-10-31T03:39:19;101941.03;;;10.69;87.53
59043;BME280;44826;51.596;5.624;2022-10-31T03:41:50;101941.91;;;10.68;87.58
59043;BME280;44826;51.596;5.624;2022-10-31T03:44:21;101942.78;;;10.67;87.81
59043;BME280;44826;51.596;5.624;2022-10-31T03:46:47;101942.78;;;10.67;87.23
59043;BME280;44826;51.596;5.624;2022-10-31T03:49:14;101941.91;;;10.68;87.27
59043;BME280;44826;51.596;5.624;2022-10-31T03:51:47;101941.09;;;10.65;87.65
59043;BME280;44826;51.596;5.624;2022-10-31T03:54:19;101946.31;;;10.61;87.39
59043;BME280;44826;51.596;5.624;2022-10-31T03:56:54;101954.09;;;10.60;87.39
59043;BME280;44826;51.596;5.624;2022-10-31T03:59:32;101949.81;;;10.57;87.36
59043;BME280;44826;51.596;5.624;2022-10-31T04:02:04;101942.03;;;10.56;87.00
59043;BME280;44826;51.596;5.624;2022-10-31T04:04:31;101943.75;;;10.57;85.85
59043;BME280;44826;51.596;5.624;2022-10-31T04:06:58;101946.41;;;10.49;86.71
59043;BME280;44826;51.596;5.624;2022-10-31T04:09:26;101941.22;;;10.44;86.56
59043;BME280;44826;51.596;5.624;2022-10-31T04:11:54;101950.81;;;10.36;85.76
59043;BME280;44826;51.596;5.624;2022-10-31T04:14:24;101954.25;;;10.33;85.77
59043;BME280;44826;51.596;5.624;2022-10-31T04:16:50;101950.00;;;10.23;84.71
59043;BME280;44826;51.596;5.624;2022-10-31T04:19:15;101950.03;;;10.17;84.70
59043;BME280;44826;51.596;5.624;2022-10-31T04:21:41;101946.59;;;10.13;84.74
59043;BME280;44826;51.596;5.624;2022-10-31T04:24:08;101950.09;;;10.08;84.17
59043;BME280;44826;51.596;5.624;2022-10-31T04:26:34;101951.00;;;10.05;84.04
59043;BME280;44826;51.596;5.624;2022-10-31T04:28:59;101945.81;;;10.02;84.07
59043;BME280;44826;51.596;5.624;2022-10-31T04:31:25;101941.47;;;10.04;85.92
59043;BME280;44826;51.596;5.624;2022-10-31T04:33:50;101945.78;;;10.07;86.54
59043;BME280;44826;51.596;5.624;2022-10-31T04:36:15;101935.38;;;10.07;86.59
59043;BME280;44826;51.596;5.624;2022-10-31T04:38:40;101939.72;;;10.06;86.79
59043;BME280;44826;51.596;5.624;2022-10-31T04:41:06;101936.25;;;10.06;85.74
59043;BME280;44826;51.596;5.624;2022-10-31T04:43:31;101948.41;;;10.02;84.91
59043;BME280;44826;51.596;5.624;2022-10-31T04:45:56;101940.59;;;10.00;84.62
59043;BME280;44826;51.596;5.624;2022-10-31T04:48:22;101935.41;;;9.99;85.29
59043;BME280;44826;51.596;5.624;2022-10-31T04:50:47;101937.19;;;9.98;86.21
59043;BME280;44826;51.596;5.624;2022-10-31T04:53:12;101943.22;;;10.02;86.41
59043;BME280;44826;51.596;5.624;2022-10-31T04:55:37;101947.53;;;10.01;86.27
59043;BME280;44826;51.596;5.624;2022-10-31T04:58:03;101943.19;;;10.03;86.55
59043;BME280;44826;51.596;5.624;2022-10-31T05:00:28;101944.94;;;10.03;86.64
59043;BME280;44826;51.596;5.624;2022-10-31T05:02:55;101933.69;;;10.01;86.67
59043;BME280;44826;51.596;5.624;2022-10-31T05:05:24;101932.81;;;10.02;87.06
59043;BME280;44826;51.596;5.624;2022-10-31T05:07:50;101929.34;;;10.03;87.06
59043;BME280;44826;51.596;5.624;2022-10-31T05:10:18;101923.28;;;10.04;87.43
59043;BME280;44826;51.596;5.624;2022-10-31T05:12:58;101932.78;;;10.03;87.49
59043;BME280;44826;51.596;5.624;2022-10-31T05:15:25;101927.59;;;10.00;86.36
59043;BME280;44826;51.596;5.624;2022-10-31T05:17:51;101929.38;;;9.97;85.75
59043;BME280;44826;51.596;5.624;2022-10-31T05:20:18;101922.44;;;9.96;86.33
59043;BME280;44826;51.596;5.624;2022-10-31T05:22:46;101928.53;;;9.93;85.54
59043;BME280;44826;51.596;5.624;2022-10-31T05:25:12;101925.91;;;9.92;85.81
59043;BME280;44826;51.596;5.624;2022-10-31T05:27:42;101928.53;;;9.90;85.88
59043;BME280;44826;51.596;5.624;2022-10-31T05:30:09;101939.84;;;9.84;84.52
59043;BME280;44826;51.596;5.624;2022-10-31T05:32:39;101929.47;;;9.80;84.59
59043;BME280;44826;51.596;5.624;2022-10-31T05:35:06;101931.19;;;9.79;85.79
59043;BME280;44826;51.596;5.624;2022-10-31T05:37:34;101929.47;;;9.78;85.91
59043;BME280;44826;51.596;5.624;2022-10-31T05:39:59;101919.94;;;9.77;85.78
59043;BME280;44826;51.596;5.624;2022-10-31T05:42:24;101926.00;;;9.76;85.69
59043;BME280;44826;51.596;5.624;2022-10-31T05:44:49;101922.53;;;9.77;85.87
59043;BME280;44826;51.596;5.624;2022-10-31T05:47:15;101916.47;;;9.77;86.22
59043;BME280;44826;51.596;5.624;2022-10-31T05:49:40;101912.13;;;9.77;86.29
59043;BME280;44826;51.596;5.624;2022-10-31T05:52:05;101911.28;;;9.75;86.77
59043;BME280;44826;51.596;5.624;2022-10-31T05:54:30;101910.44;;;9.75;86.36
59043;BME280;44826;51.596;5.624;2022-10-31T05:56:56;101906.94;;;9.74;86.29
59043;BME280;44826;51.596;5.624;2022-10-31T05:59:21;101907.84;;;9.73;85.98
59043;BME280;44826;51.596;5.624;2022-10-31T06:01:46;101908.72;;;9.72;85.50
59043;BME280;44826;51.596;5.624;2022-10-31T06:04:11;101906.97;;;9.69;85.42
59043;BME280;44826;51.596;5.624;2022-10-31T06:06:37;101906.13;;;9.67;84.76
59043;BME280;44826;51.596;5.624;2022-10-31T06:09:02;101912.19;;;9.65;84.55
59043;BME280;44826;51.596;5.624;2022-10-31T06:11:27;101907.88;;;9.64;85.05
59043;BME280;44826;51.596;5.624;2022-10-31T06:13:52;101899.22;;;9.63;85.90
59043;BME280;44826;51.596;5.624;2022-10-31T06:16:18;101909.63;;;9.62;85.40
59043;BME280;44826;51.596;5.624;2022-10-31T06:18:43;101902.72;;;9.59;84.46
59043;BME280;44826;51.596;5.624;2022-10-31T06:21:08;101902.69;;;9.61;85.95
59043;BME280;44826;51.596;5.624;2022-10-31T06:23:33;101899.25;;;9.60;86.27
59043;BME280;44826;51.596;5.624;2022-10-31T06:25:59;101907.91;;;9.62;86.60
59043;BME280;44826;51.596;5.624;2022-10-31T06:28:24;101910.50;;;9.59;86.71
59043;BME280;44826;51.596;5.624;2022-10-31T06:30:49;101900.97;;;9.56;86.69
59043;BME280;44826;51.596;5.624;2022-10-31T06:33:14;101903.59;;;9.55;87.06
59043;BME280;44826;51.596;5.624;2022-10-31T06:35:45;101899.25;;;9.51;86.20
59043;BME280;44826;51.596;5.624;2022-10-31T06:38:10;101898.41;;;9.52;86.67
59043;BME280;44826;51.596;5.624;2022-10-31T06:40:35;101899.28;;;9.49;86.16
59043;BME280;44826;51.596;5.624;2022-10-31T06:43:01;101900.16;;;9.48;86.28
59043;BME280;44826;51.596;5.624;2022-10-31T06:45:27;101907.06;;;9.49;86.22
59043;BME280;44826;51.596;5.624;2022-10-31T06:47:53;101909.66;;;9.52;86.37
59043;BME280;44826;51.596;5.624;2022-10-31T06:50:20;101913.13;;;9.53;86.25
59043;BME280;44826;51.596;5.624;2022-10-31T06:52:55;101911.38;;;9.55;86.07
59043;BME280;44826;51.596;5.624;2022-10-31T06:55:21;101917.47;;;9.55;86.18
59043;BME280;44826;51.596;5.624;2022-10-31T06:57:52;101918.28;;;9.57;86.43
59043;BME280;44826;51.596;5.624;2022-10-31T07:00:18;101911.34;;;9.60;86.80
59043;BME280;44826;51.596;5.624;2022-10-31T07:02:43;101915.66;;;9.64;86.79
59043;BME280;44826;51.596;5.624;2022-10-31T07:05:08;101914.78;;;9.68;87.31
59043;BME280;44826;51.596;5.624;2022-10-31T07:07:34;101903.53;;;9.66;87.32
59043;BME280;44826;51.596;5.624;2022-10-31T07:09:59;101903.53;;;9.69;87.37
59043;BME280;44826;51.596;5.624;2022-10-31T07:12:24;101905.25;;;9.70;86.95
59043;BME280;44826;51.596;5.624;2022-10-31T07:14:49;101903.53;;;9.72;87.19
59043;BME280;44826;51.596;5.624;2022-10-31T07:17:15;101901.78;;;9.72;87.19
59043;BME280;44826;51.596;5.624;2022-10-31T07:19:40;101900.91;;;9.77;87.41
59043;BME280;44826;51.596;5.624;2022-10-31T07:22:06;101906.03;;;9.83;87.99
59043;BME280;44826;51.596;5.624;2022-10-31T07:24:31;101906.03;;;9.87;88.10
59043;BME280;44826;51.596;5.624;2022-10-31T07:26:56;101904.25;;;9.93;88.11
59043;BME280;44826;51.596;5.624;2022-10-31T07:29:21;101910.28;;;9.98;88.06
59043;BME280;44826;51.596;5.624;2022-10-31T07:31:47;101912.00;;;10.02;88.49
59043;BME280;44826;51.596;5.624;2022-10-31T07:34:12;101913.72;;;10.06;88.58
59043;BME280;44826;51.596;5.624;2022-10-31T07:36:37;101911.97;;;10.10;88.55
59043;BME280;44826;51.596;5.624;2022-10-31T07:39:02;101914.56;;;10.13;88.78
59043;BME280;44826;51.596;5.624;2022-10-31T07:41:28;101911.91;;;10.17;89.28
59043;BME280;44826;51.596;5.624;2022-10-31T07:43:53;101916.19;;;10.23;89.08
59043;BME280;44826;51.596;5.624;2022-10-31T07:46:18;101930.03;;;10.28;89.53
59043;BME280;44826;51.596;5.624;2022-10-31T07:48:44;101929.97;;;10.35;89.67
59043;BME280;44826;51.596;5.624;2022-10-31T07:51:09;101932.59;;;10.39;90.20
59043;BME280;44826;51.596;5.624;2022-10-31T07:53:34;101926.50;;;10.45;90.47
59043;BME280;44826;51.596;5.624;2022-10-31T07:55:59;101924.69;;;10.52;91.08
59043;BME280;44826;51.596;5.624;2022-10-31T07:58:25;101931.59;;;10.59;91.21
59043;BME280;44826;51.596;5.624;2022-10-31T08:00:50;101926.34;;;10.63;91.44
59043;BME280;44826;51.596;5.624;2022-10-31T08:03:17;101918.50;;;10.68;92.03
59043;BME280;44826;51.596;5.624;2022-10-31T08:05:43;101929.72;;;10.73;92.24
59043;BME280;44826;51.596;5.624;2022-10-31T08:08:13;101925.31;;;10.78;92.46
59043;BME280;44826;51.596;5.624;2022-10-31T08:10:38;101920.91;;;10.85;92.67
59043;BME280;44826;51.596;5.624;2022-10-31T08:13:08;101923.47;;;10.91;93.02
59043;BME280;44826;51.596;5.624;2022-10-31T08:15:34;101919.06;;;10.98;93.60
59043;BME280;44826;51.596;5.624;2022-10-31T08:18:03;101925.94;;;11.04;93.79
59043;BME280;44826;51.596;5.624;2022-10-31T08:20:28;101931.13;;;11.08;93.85
59043;BME280;44826;51.596;5.624;2022-10-31T08:23:04;101926.72;;;11.15;94.19
59043;BME280;44826;51.596;5.624;2022-10-31T08:25:32;101924.91;;;11.22;94.19
59043;BME280;44826;51.596;5.624;2022-10-31T08:27:57;101925.69;;;11.29;94.64
59043;BME280;44826;51.596;5.624;2022-10-31T08:30:26;101918.63;;;11.37;94.89
59043;BME280;44826;51.596;5.624;2022-10-31T08:33:14;101914.19;;;11.47;95.39
59043;BME280;44826;51.596;5.624;2022-10-31T08:35:39;101905.38;;;11.57;95.16
59043;BME280;44826;51.596;5.624;2022-10-31T08:38:05;101893.97;;;11.66;95.34
59043;BME280;44826;51.596;5.624;2022-10-31T08:40:31;101892.97;;;11.76;95.58
59043;BME280;44826;51.596;5.624;2022-10-31T08:43:04;101898.91;;;11.86;96.19
59043;BME280;44826;51.596;5.624;2022-10-31T08:45:31;101898.75;;;11.98;96.28
59043;BME280;44826;51.596;5.624;2022-10-31T08:48:02;101904.69;;;12.10;96.19
59043;BME280;44826;51.596;5.624;2022-10-31T08:50:29;101899.31;;;12.21;96.21
59043;BME280;44826;51.596;5.624;2022-10-31T08:53:03;101897.44;;;12.29;96.08
59043;BME280;44826;51.596;5.624;2022-10-31T08:55:29;101893.91;;;12.33;95.63
59043;BME280;44826;51.596;5.624;2022-10-31T08:57:56;101880.78;;;12.38;95.60
59043;BME280;44826;51.596;5.624;2022-10-31T09:00:22;101857.25;;;12.41;95.37
59043;BME280;44826;51.596;5.624;2022-10-31T09:02:47;101835.44;;;12.43;95.06
59043;BME280;44826;51.596;5.624;2022-10-31T09:05:12;101838.03;;;12.45;95.30
59043;BME280;44826;51.596;5.624;2022-10-31T09:07:37;101847.56;;;12.48;95.48
59043;BME280;44826;51.596;5.624;2022-10-31T09:10:03;101847.50;;;12.49;95.38
59043;BME280;44826;51.596;5.624;2022-10-31T09:12:28;101863.97;;;12.54;95.57
59043;BME280;44826;51.596;5.624;2022-10-31T09:14:53;101860.41;;;12.58;95.73
59043;BME280;44826;51.596;5.624;2022-10-31T09:17:18;101860.38;;;12.62;95.45
59043;BME280;44826;51.596;5.624;2022-10-31T09:19:44;101849.84;;;12.65;95.28
59043;BME280;44826;51.596;5.624;2022-10-31T09:22:09;101845.44;;;12.68;95.44
59043;BME280;44826;51.596;5.624;2022-10-31T09:24:34;101846.19;;;12.73;96.12
59043;BME280;44826;51.596;5.624;2022-10-31T09:26:59;101883.50;;;12.82;96.63
59043;BME280;44826;51.596;5.624;2022-10-31T09:29:25;101892.84;;;12.94;97.45
59043;BME280;44826;51.596;5.624;2022-10-31T09:31:50;101871.72;;;13.06;97.65
59043;BME280;44826;51.596;5.624;2022-10-31T09:34:15;101856.75;;;13.14;97.39
59043;BME280;44826;51.596;5.624;2022-10-31T09:36:40;101853.09;;;13.23;96.33
59043;BME280;44826;51.596;5.624;2022-10-31T09:39:08;101850.38;;;13.28;95.92
59043;BME280;44826;51.596;5.624;2022-10-31T09:41:54;101851.13;;;13.33;96.12
59043;BME280;44826;51.596;5.624;2022-10-31T09:50:02;101812.59;;;13.44;95.42
59043;BME280;44826;51.596;5.624;2022-10-31T09:52:37;101804.69;;;13.47;95.19
59043;BME280;44826;51.596;5.624;2022-10-31T09:55:12;101816.00;;;13.48;94.79
59043;BME280;44826;51.596;5.624;2022-10-31T09:57:39;101813.38;;;13.48;94.50
59043;BME280;44826;51.596;5.624;2022-10-31T10:00:10;101804.69;;;13.47;94.81
59043;BME280;44826;51.596;5.624;2022-10-31T10:08:19;101808.06;;;13.53;95.10
59043;BME280;44826;51.596;5.624;2022-10-31T10:10:51;101808.00;;;13.56;94.93
59043;BME280;44826;51.596;5.624;2022-10-31T10:21:42;101801.38;;;13.77;94.92
59043;BME280;44826;51.596;5.624;2022-10-31T10:24:46;101787.22;;;13.86;94.74
59043;BME280;44826;51.596;5.624;2022-10-31T10:27:36;101778.31;;;13.94;94.42
59043;BME280;44826;51.596;5.624;2022-10-31T10:30:11;101770.38;;;13.99;93.69
59043;BME280;44826;51.596;5.624;2022-10-31T10:32:53;101772.81;;;14.05;93.72
59043;BME280;44826;51.596;5.624;2022-10-31T10:35:24;101768.31;;;14.10;92.66
59043;BME280;44826;51.596;5.624;2022-10-31T10:37:55;101767.34;;;14.15;93.33
59043;BME280;44826;51.596;5.624;2022-10-31T10:40:27;101762.88;;;14.18;93.30
59043;BME280;44826;51.596;5.624;2022-10-31T10:43:07;101749.66;;;14.23;93.39
59043;BME280;44826;51.596;5.624;2022-10-31T10:49:38;101734.44;;;14.37;93.20
59043;BME280;44826;51.596;5.624;2022-10-31T10:51:59;101723.81;;;14.44;93.15
59043;BME280;44826;51.596;5.624;2022-10-31T10:59:56;101742.53;;;14.61;92.04
59043;BME280;44826;51.596;5.624;2022-10-31T11:02:26;101743.31;;;14.65;92.03
59043;BME280;44826;51.596;5.624;2022-10-31T11:04:54;101735.25;;;14.72;92.29
59043;BME280;44826;51.596;5.624;2022-10-31T11:07:20;101733.31;;;14.79;91.67
59043;BME280;44826;51.596;5.624;2022-10-31T11:09:46;101718.31;;;14.84;91.70
59043;BME280;44826;51.596;5.624;2022-10-31T11:14:52;101722.44;;;14.93;91.16
59043;BME280;44826;51.596;5.624;2022-10-31T11:17:29;101725.88;;;14.95;91.00
59043;BME280;44826;51.596;5.624;2022-10-31T11:20:06;101725.78;;;14.98;91.09
59043;BME280;44826;51.596;5.624;2022-10-31T11:22:48;101721.22;;;15.05;90.51
59043;BME280;44826;51.596;5.624;2022-10-31T11:25:24;101712.25;;;15.12;90.52
59043;BME280;44826;51.596;5.624;2022-10-31T11:28:03;101713.84;;;15.18;90.14
59043;BME280;44826;51.596;5.624;2022-10-31T11:30:30;101712.00;;;15.20;89.67
59043;BME280;44826;51.596;5.624;2022-10-31T11:32:56;101707.47;;;15.25;89.88
59043;BME280;44826;51.596;5.624;2022-10-31T11:35:23;101699.47;;;15.30;89.16
59043;BME280;44826;51.596;5.624;2022-10-31T11:37:52;101688.03;;;15.32;89.25
59043;BME280;44826;51.596;5.624;2022-10-31T11:40:24;101670.59;;;15.31;88.52
59043;BME280;44826;51.596;5.624;2022-10-31T11:42:52;101658.28;;;15.33;88.52
59043;BME280;44826;51.596;5.624;2022-10-31T11:45:29;101656.47;;;15.36;88.75
59043;BME280;44826;51.596;5.624;2022-10-31T11:47:56;101648.47;;;15.40;88.20
59043;BME280;44826;51.596;5.624;2022-10-31T11:50:29;101657.94;;;15.44;87.75
59043;BME280;44826;51.596;5.624;2022-10-31T11:52:56;101652.44;;;15.52;87.78
59043;BME280;44826;51.596;5.624;2022-10-31T11:55:36;101634.66;;;15.60;87.98
59043;BME280;44826;51.596;5.624;2022-10-31T11:58:02;101638.81;;;15.68;87.49
59043;BME280;44826;51.596;5.624;2022-10-31T12:00:37;101630.78;;;15.72;87.43
59043;BME280;44826;51.596;5.624;2022-10-31T12:05:51;101614.84;;;15.77;86.29
59043;BME280;44826;51.596;5.624;2022-10-31T12:08:18;101616.47;;;15.81;87.48
59043;BME280;44826;51.596;5.624;2022-10-31T12:11:02;101614.66;;;15.83;86.70
59043;BME280;44826;51.596;5.624;2022-10-31T12:13:45;101592.41;;;15.95;86.93
59043;BME280;44826;51.596;5.624;2022-10-31T12:16:26;101588.44;;;16.07;86.06
59043;BME280;44826;51.596;5.624;2022-10-31T12:19:08;101578.53;;;16.15;86.22
59043;BME280;44826;51.596;5.624;2022-10-31T12:21:55;101574.00;;;16.19;85.45
59043;BME280;44826;51.596;5.624;2022-10-31T12:27:02;101565.47;;;16.14;84.46
59043;BME280;44826;51.596;5.624;2022-10-31T12:29:45;101569.06;;;16.11;84.24
59043;BME280;44826;51.596;5.624;2022-10-31T12:40:47;101527.63;;;16.19;84.25
59043;BME280;44826;51.596;5.624;2022-10-31T12:49:42;101509.06;;;16.46;81.92
59043;BME280;44826;51.596;5.624;2022-10-31T12:52:30;101503.69;;;16.49;81.39
59043;BME280;44826;51.596;5.624;2022-10-31T12:55:26;101494.03;;;16.50;81.11
59043;BME280;44826;51.596;5.624;2022-10-31T12:58:01;101489.53;;;16.53;79.98
59043;BME280;44826;51.596;5.624;2022-10-31T13:00:29;101491.09;;;16.58;80.60
59043;BME280;44826;51.596;5.624;2022-10-31T13:02:57;101476.09;;;16.61;80.46
59043;BME280;44826;51.596;5.624;2022-10-31T13:05:31;101469.75;;;16.65;79.50
59043;BME280;44826;51.596;5.624;2022-10-31T13:08:04;101458.41;;;16.65;79.32
59043;BME280;44826;51.596;5.624;2022-10-31T13:10:36;101452.25;;;16.66;79.44
59043;BME280;44826;51.596;5.624;2022-10-31T13:13:26;101443.56;;;16.64;80.28
59043;BME280;44826;51.596;5.624;2022-10-31T13:15:57;101442.97;;;16.57;78.51
59043;BME280;44826;51.596;5.624;2022-10-31T13:18:32;101437.81;;;16.56;78.85
59043;BME280;44826;51.596;5.624;2022-10-31T13:21:00;101428.06;;;16.58;77.77
59043;BME280;44826;51.596;5.624;2022-10-31T13:23:33;101435.03;;;16.59;78.09
59043;BME280;44826;51.596;5.624;2022-10-31T13:26:03;101423.34;;;16.66;78.15
59043;BME280;44826;51.596;5.624;2022-10-31T13:28:43;101420.31;;;16.75;78.69
59043;BME280;44826;51.596;5.624;2022-10-31T13:31:10;101415.84;;;16.77;76.62
59043;BME280;44826;51.596;5.624;2022-10-31T13:33:37;101408.25;;;16.71;75.40
59043;BME280;44826;51.596;5.624;2022-10-31T13:36:21;101403.34;;;16.63;76.01
59043;BME280;44826;51.596;5.624;2022-10-31T13:39:03;101393.00;;;16.59;77.53
59043;BME280;44826;51.596;5.624;2022-10-31T13:41:46;101384.47;;;16.53;76.70
59043;BME280;44826;51.596;5.624;2022-10-31T13:44:17;101384.66;;;16.49;76.98
59043;BME280;44826;51.596;5.624;2022-10-31T13:46:44;101381.25;;;16.47;76.37
59043;BME280;44826;51.596;5.624;2022-10-31T13:54:45;101383.59;;;16.53;76.89
59043;BME280;44826;51.596;5.624;2022-10-31T13:57:19;101365.16;;;16.54;77.40
59043;BME280;44826;51.596;5.624;2022-10-31T13:59:55;101369.50;;;16.56;76.05
59043;BME280;44826;51.596;5.624;2022-10-31T14:02:31;101356.50;;;16.52;77.25
59043;BME280;44826;51.596;5.624;2022-10-31T14:05:25;101352.97;;;16.53;77.71
59043;BME280;44826;51.596;5.624;2022-10-31T14:07:52;101356.53;;;16.51;76.53
59043;BME280;44826;51.596;5.624;2022-10-31T14:10:35;101353.19;;;16.47;76.53
59043;BME280;44826;51.596;5.624;2022-10-31T14:13:21;101350.69;;;16.44;77.29
59043;BME280;44826;51.596;5.624;2022-10-31T14:16:05;101346.69;;;16.35;77.52